This is the latest recevied weather packets stored in our database for station/object I3LPO-3. If no packets are shown the sender has not sent any weather packets the latest 1 day(s).
| Time | Temp. | Humidity | Pressure | Rain* | Wind** | Luminosity | Snow |
|---|---|---|---|---|---|---|---|
| 1777728986 | 22.22° C | 39% | 1023.1 hPa | - | - | - | - |
| 1777726579 | 23.33° C | 39% | 1023.4 hPa | - | - | - | - |
| 1777725375 | 23.89° C | 40% | 1023.5 hPa | - | - | - | - |
| 1777724171 | 25.56° C | 40% | 1023.6 hPa | - | - | - | - |
| 1777722968 | 26.67° C | 40% | 1023.7 hPa | - | - | - | - |
| 1777721764 | 28.89° C | 40% | 1023.6 hPa | - | - | - | - |
| 1777720561 | 30.56° C | 40% | 1023.8 hPa | - | - | - | - |
| 1777719357 | 31.67° C | 39% | 1023.9 hPa | - | - | - | - |
| 1777718154 | 31.67° C | 39% | 1024.1 hPa | - | - | - | - |
| 1777716950 | 30.56° C | 38% | 1024.5 hPa | - | - | - | - |
| 1777715746 | 28.33° C | 38% | 1024.9 hPa | - | - | - | - |
| 1777714543 | 27.22° C | 38% | 1025.3 hPa | - | - | - | - |
| 1777713339 | 26.11° C | 38% | 1025.6 hPa | - | - | - | - |
| 1777712136 | 25° C | 38% | 1025.7 hPa | - | - | - | - |
| 1777710932 | 24.44° C | 38% | 1025.9 hPa | - | - | - | - |
| 1777709728 | 23.89° C | 38% | 1026.2 hPa | - | - | - | - |
| 1777708525 | 22.78° C | 37% | 1026.5 hPa | - | - | - | - |
| 1777707321 | 21.11° C | 37% | 1026.7 hPa | - | - | - | - |
| 1777706118 | 19.44° C | 37% | 1027.1 hPa | - | - | - | - |
| 1777704914 | 17.78° C | 37% | 1027.4 hPa | - | - | - | - |
| 1777703711 | 16.11° C | 36% | 1027.8 hPa | - | - | - | - |
| 1777702507 | 13.89° C | 36% | 1028 hPa | - | - | - | - |
* Rain since midnight (hover to see other rain measurements)
** Current wind speed in m/s (hover to see current wind gust speed)